Time;durP1;ratioP1;P1;durP2;ratioP2;P2;SDS_P1;SDS_P2;PMS_P1;PMS_P2;Temp;Humidity;BMP_temperature;BMP_pressure;BME280_temperature;BME280_humidity;BME280_pressure;Samples;Min_cycle;Max_cycle;Signal;HPM_P1;HPM_P2
2021/08/22 00:00:19;;;;;;;12.13;9.75;;;;;;;;;;1082858;46;20354;-88
2021/08/22 00:01:39;;;;;;;12.38;9.77;;;;;;;;;;1083862;54;20428;-88
2021/08/22 00:02:49;;;;;;;10.00;8.75;;;;;;;;;;1082816;54;20365;-87
2021/08/22 00:03:52;;;;;;;11.80;9.60;;;;;;;;;;1083497;54;20366;-87
2021/08/22 00:04:55;;;;;;;11.25;9.43;;;;;;;;;;1082322;47;20377;-87
2021/08/22 00:05:57;;;;;;;9.30;8.40;;;;;;;;;;1083085;47;20358;-88
2021/08/22 00:06:59;;;;;;;10.52;9.18;;;;;;;;;;1082807;54;20366;-88
2021/08/22 00:08:01;;;;;;;11.02;9.20;;;;;;;;;;1082373;54;20417;-88
2021/08/22 00:09:05;;;;;;;11.77;9.15;;;;;;;;;;1082871;51;20364;-87
2021/08/22 00:10:09;;;;;;;8.90;7.80;;;;;;;;;;1082058;47;20381;-87
2021/08/22 00:11:10;;;;;;;9.13;8.23;;;;;;;;;;1083442;54;20376;-88
2021/08/22 00:12:14;;;;;;;12.07;8.93;;;;;;;;;;1082809;47;20365;-88
2021/08/22 00:13:16;;;;;;;10.43;8.55;;;;;;;;;;1082362;54;20374;-87
2021/08/22 00:14:18;;;;;;;9.35;8.35;;;;;;;;;;1082730;54;20397;-88
2021/08/22 00:15:20;;;;;;;12.05;8.48;;;;;;;;;;1082185;54;20380;-88
2021/08/22 00:16:22;;;;;;;10.90;8.45;;;;;;;;;;1082167;54;20949;-90
2021/08/22 00:17:24;;;;;;;11.23;9.02;;;;;;;;;;1082309;54;21264;-87
2021/08/22 00:18:26;;;;;;;11.77;9.48;;;;;;;;;;1082345;54;20412;-87
2021/08/22 00:19:29;;;;;;;15.43;9.55;;;;;;;;;;1082135;46;20370;-88
2021/08/22 00:20:31;;;;;;;11.40;10.25;;;;;;;;;;1081193;47;20386;-87
2021/08/22 00:21:33;;;;;;;13.57;10.25;;;;;;;;;;1082718;39;20888;-87
2021/08/22 00:22:37;;;;;;;12.40;9.90;;;;;;;;;;1082333;39;21295;-87
2021/08/22 00:23:39;;;;;;;12.03;10.27;;;;;;;;;;1082242;47;20413;-86
2021/08/22 00:24:41;;;;;;;15.30;10.25;;;;;;;;;;1081954;47;20374;-86
2021/08/22 00:25:42;;;;;;;14.07;10.75;;;;;;;;;;1082042;54;20362;-88
2021/08/22 00:26:44;;;;;;;12.95;10.80;;;;;;;;;;1082554;54;20365;-87
2021/08/22 00:27:48;;;;;;;16.00;11.20;;;;;;;;;;1082061;54;20366;-88
2021/08/22 00:28:51;;;;;;;12.50;10.60;;;;;;;;;;1082164;54;20388;-89
2021/08/22 00:29:53;;;;;;;14.20;10.88;;;;;;;;;;1081466;47;20390;-88
2021/08/22 00:30:55;;;;;;;15.85;12.15;;;;;;;;;;1081609;54;20393;-88
2021/08/22 00:31:57;;;;;;;12.98;10.45;;;;;;;;;;1082208;46;20361;-88
2021/08/22 00:32:59;;;;;;;13.33;11.30;;;;;;;;;;1082270;54;20446;-87
2021/08/22 00:34:03;;;;;;;13.23;10.85;;;;;;;;;;1082055;54;20354;-89
2021/08/22 00:35:07;;;;;;;12.32;10.85;;;;;;;;;;1081329;54;20389;-89
2021/08/22 00:36:09;;;;;;;11.30;10.18;;;;;;;;;;1081681;54;20396;-88
2021/08/22 00:37:11;;;;;;;14.70;10.90;;;;;;;;;;1082277;47;20373;-88
2021/08/22 00:38:14;;;;;;;13.97;10.73;;;;;;;;;;1082544;31;20830;-88
2021/08/22 00:39:23;;;;;;;11.75;10.35;;;;;;;;;;1081688;54;20369;-87
2021/08/22 00:40:26;;;;;;;14.20;11.15;;;;;;;;;;1081514;54;20393;-89
2021/08/22 00:41:29;;;;;;;12.73;10.25;;;;;;;;;;1081587;54;20373;-87
2021/08/22 00:42:35;;;;;;;12.00;10.77;;;;;;;;;;1081817;54;20389;-87
2021/08/22 00:43:37;;;;;;;15.50;10.50;;;;;;;;;;1081704;54;20476;-88
2021/08/22 00:44:39;;;;;;;12.93;11.52;;;;;;;;;;1081724;54;20453;-87
2021/08/22 00:45:43;;;;;;;14.60;10.95;;;;;;;;;;1081680;54;20918;-88
2021/08/22 00:46:47;;;;;;;11.45;10.23;;;;;;;;;;1081305;47;20474;-89
2021/08/22 00:47:50;;;;;;;13.80;10.73;;;;;;;;;;1081827;54;20389;-87
2021/08/22 00:48:52;;;;;;;12.13;10.87;;;;;;;;;;1083094;39;20839;-88
2021/08/22 00:49:54;;;;;;;17.53;11.57;;;;;;;;;;1081876;54;20365;-88
2021/08/22 00:50:58;;;;;;;17.00;11.32;;;;;;;;;;1081717;54;20361;-88
2021/08/22 00:52:00;;;;;;;11.52;10.40;;;;;;;;;;1081513;54;20437;-87
2021/08/22 00:53:06;;;;;;;12.48;10.73;;;;;;;;;;1081772;47;20385;-88
2021/08/22 00:54:08;;;;;;;13.13;10.13;;;;;;;;;;1084305;54;20361;-88
2021/08/22 00:55:11;;;;;;;12.23;10.65;;;;;;;;;;1083108;47;20372;-88
2021/08/22 00:56:16;;;;;;;11.55;10.32;;;;;;;;;;1082070;51;20453;-89
2021/08/22 00:57:18;;;;;;;14.07;11.30;;;;;;;;;;1081820;54;20384;-88
2021/08/22 00:58:21;;;;;;;12.18;10.85;;;;;;;;;;1081930;54;20393;-90
2021/08/22 00:59:24;;;;;;;13.80;10.88;;;;;;;;;;1083036;31;20830;-89
2021/08/22 01:00:27;;;;;;;16.92;11.95;;;;;;;;;;1081777;54;20437;-88
2021/08/22 01:01:30;;;;;;;14.70;10.52;;;;;;;;;;1082072;54;20433;-89
2021/08/22 01:02:35;;;;;;;12.98;10.75;;;;;;;;;;1082229;39;20753;-88
2021/08/22 01:03:52;;;;;;;17.08;11.10;;;;;;;;;;1081880;54;20377;-88
2021/08/22 01:05:24;;;;;;;12.85;9.70;;;;;;;;;;1082163;54;20365;-88
2021/08/22 01:06:54;;;;;;;10.70;9.32;;;;;;;;;;1081540;47;20397;-88
2021/08/22 01:08:25;;;;;;;12.13;8.60;;;;;;;;;;1081132;47;21289;-89
2021/08/22 01:09:34;;;;;;;9.23;5.63;;;;;;;;;;1082138;54;20366;-89
2021/08/22 01:10:38;;;;;;;9.85;4.50;;;;;;;;;;1081627;54;20485;-89
2021/08/22 01:11:41;;;;;;;8.13;4.93;;;;;;;;;;1081567;48;20458;-88
2021/08/22 01:12:47;;;;;;;6.72;4.40;;;;;;;;;;1082096;54;20361;-88
2021/08/22 01:13:56;;;;;;;6.20;3.67;;;;;;;;;;1082722;47;20871;-87
2021/08/22 01:15:05;;;;;;;13.68;3.70;;;;;;;;;;1082226;47;20373;-88
2021/08/22 01:16:08;;;;;;;7.40;2.47;;;;;;;;;;1083111;54;20407;-87
2021/08/22 01:17:14;;;;;;;7.15;3.15;;;;;;;;;;1082253;47;20462;-87
2021/08/22 01:18:18;;;;;;;5.35;2.92;;;;;;;;;;1082089;54;20491;-87
2021/08/22 01:19:40;;;;;;;6.10;2.43;;;;;;;;;;1082692;39;21047;-89
2021/08/22 01:20:56;;;;;;;6.55;2.60;;;;;;;;;;1082152;47;20928;-87
2021/08/22 01:22:06;;;;;;;5.43;2.40;;;;;;;;;;1082624;54;20381;-87
2021/08/22 01:23:12;;;;;;;7.65;2.20;;;;;;;;;;1082637;54;20455;-87
2021/08/22 01:24:18;;;;;;;7.07;2.10;;;;;;;;;;1083424;54;20437;-88
2021/08/22 01:25:22;;;;;;;6.25;1.65;;;;;;;;;;1084301;47;20425;-89
2021/08/22 01:26:29;;;;;;;5.32;1.58;;;;;;;;;;1084594;54;20399;-88
2021/08/22 01:27:33;;;;;;;5.53;1.67;;;;;;;;;;1084797;47;20476;-87
2021/08/22 01:28:37;;;;;;;5.75;1.73;;;;;;;;;;1083616;47;20373;-87
2021/08/22 01:29:46;;;;;;;3.88;1.83;;;;;;;;;;1083408;51;20389;-87
2021/08/22 01:30:48;;;;;;;4.93;1.92;;;;;;;;;;1083934;39;20762;-87
2021/08/22 01:31:51;;;;;;;3.35;1.55;;;;;;;;;;1084852;54;20358;-89
2021/08/22 01:32:54;;;;;;;4.80;1.40;;;;;;;;;;1087177;46;20409;-89
2021/08/22 01:34:00;;;;;;;3.70;1.55;;;;;;;;;;1086757;54;20400;-88
2021/08/22 01:35:02;;;;;;;7.00;1.73;;;;;;;;;;1083954;39;20776;-87
2021/08/22 01:36:05;;;;;;;3.58;1.10;;;;;;;;;;1083181;47;20939;-89
2021/08/22 01:37:07;;;;;;;4.53;1.60;;;;;;;;;;1083290;54;20369;-86
2021/08/22 01:38:09;;;;;;;6.80;1.90;;;;;;;;;;1082946;47;20404;-86
2021/08/22 01:39:13;;;;;;;6.68;1.23;;;;;;;;;;1082003;54;20374;-86
2021/08/22 01:40:18;;;;;;;4.00;1.80;;;;;;;;;;1082413;39;21189;-86
2021/08/22 01:41:23;;;;;;;3.60;1.40;;;;;;;;;;1082229;54;20484;-87
2021/08/22 01:42:26;;;;;;;10.43;1.90;;;;;;;;;;1082002;47;20373;-88
2021/08/22 01:43:28;;;;;;;6.28;1.88;;;;;;;;;;1082028;54;20408;-86
2021/08/22 01:44:31;;;;;;;6.57;1.73;;;;;;;;;;1081164;54;20476;-87
2021/08/22 01:45:34;;;;;;;3.88;1.63;;;;;;;;;;1081991;47;20386;-86
2021/08/22 01:46:36;;;;;;;10.70;1.80;;;;;;;;;;1082482;39;21083;-87
2021/08/22 01:47:44;;;;;;;4.93;1.92;;;;;;;;;;1082385;47;20365;-88
2021/08/22 01:48:46;;;;;;;4.03;1.50;;;;;;;;;;1082193;47;20404;-87
2021/08/22 01:49:48;;;;;;;3.93;1.43;;;;;;;;;;1082594;54;20477;-87
2021/08/22 01:50:57;;;;;;;2.35;1.35;;;;;;;;;;1085181;54;20381;-88
2021/08/22 01:52:01;;;;;;;4.50;1.10;;;;;;;;;;1086138;54;20416;-88
2021/08/22 01:53:05;;;;;;;4.97;2.00;;;;;;;;;;1086660;47;20392;-88
2021/08/22 01:54:10;;;;;;;4.70;1.50;;;;;;;;;;1099302;39;21272;-89
2021/08/22 01:55:12;;;;;;;1.98;1.38;;;;;;;;;;1087230;54;20372;-88
2021/08/22 01:56:14;;;;;;;5.65;1.80;;;;;;;;;;1086919;54;20378;-88
2021/08/22 01:57:17;;;;;;;6.15;1.90;;;;;;;;;;1086786;54;20353;-89
2021/08/22 01:58:21;;;;;;;4.78;1.55;;;;;;;;;;1086894;54;20400;-88
2021/08/22 01:59:23;;;;;;;6.15;1.48;;;;;;;;;;1086769;47;20372;-90
2021/08/22 02:00:27;;;;;;;6.95;1.60;;;;;;;;;;1083561;47;20377;-89
2021/08/22 02:01:30;;;;;;;7.20;1.92;;;;;;;;;;1083098;54;20473;-87
2021/08/22 02:02:32;;;;;;;5.95;1.90;;;;;;;;;;1083223;54;20381;-87
2021/08/22 02:03:41;;;;;;;4.88;1.80;;;;;;;;;;1083180;47;20373;-87
2021/08/22 02:04:51;;;;;;;4.28;1.77;;;;;;;;;;1082985;47;20408;-87
2021/08/22 02:05:57;;;;;;;5.40;1.55;;;;;;;;;;1083521;54;20380;-87
2021/08/22 02:07:15;;;;;;;6.43;1.70;;;;;;;;;;1083011;54;20411;-87
2021/08/22 02:08:19;;;;;;;4.97;2.00;;;;;;;;;;1082895;54;20429;-87
2021/08/22 02:09:33;;;;;;;4.25;1.48;;;;;;;;;;1082547;54;20414;-90
2021/08/22 02:10:40;;;;;;;3.60;2.00;;;;;;;;;;1083466;54;20473;-88
2021/08/22 02:11:45;;;;;;;4.03;1.60;;;;;;;;;;1083102;47;20385;-88
2021/08/22 02:12:51;;;;;;;5.82;2.15;;;;;;;;;;1084303;39;20860;-87
2021/08/22 02:13:55;;;;;;;3.90;2.00;;;;;;;;;;1085689;54;20385;-88
2021/08/22 02:15:19;;;;;;;4.18;1.38;;;;;;;;;;1085880;46;20441;-88
2021/08/22 02:16:26;;;;;;;4.72;1.50;;;;;;;;;;1085985;47;20362;-88
2021/08/22 02:18:02;;;;;;;6.93;2.03;;;;;;;;;;1087509;54;20357;-87
2021/08/22 02:19:04;;;;;;;3.35;1.42;;;;;;;;;;1087447;54;20457;-87
2021/08/22 02:20:07;;;;;;;6.13;1.63;;;;;;;;;;1086285;46;20408;-88
2021/08/22 02:21:10;;;;;;;4.00;2.08;;;;;;;;;;1084925;47;20420;-87
2021/08/22 02:22:13;;;;;;;3.85;1.60;;;;;;;;;;1085745;46;20365;-88
2021/08/22 02:23:16;;;;;;;3.47;1.80;;;;;;;;;;1087229;47;20385;-88
2021/08/22 02:24:19;;;;;;;6.15;1.75;;;;;;;;;;1087403;54;20385;-89
2021/08/22 02:25:20;;;;;;;5.22;1.90;;;;;;;;;;1087418;54;20365;-87
2021/08/22 02:26:24;;;;;;;2.22;1.80;;;;;;;;;;1087742;54;20401;-88
2021/08/22 02:27:30;;;;;;;4.63;1.88;;;;;;;;;;1086802;47;20377;-89
2021/08/22 02:28:33;;;;;;;6.40;2.35;;;;;;;;;;1083792;39;20781;-87
2021/08/22 02:29:45;;;;;;;5.40;1.90;;;;;;;;;;1083061;47;20436;-87
2021/08/22 02:30:51;;;;;;;5.97;2.10;;;;;;;;;;1083001;47;20424;-87
2021/08/22 02:31:53;;;;;;;6.50;2.00;;;;;;;;;;1082539;47;20400;-86
2021/08/22 02:32:55;;;;;;;6.95;1.90;;;;;;;;;;1081837;47;20365;-86
2021/08/22 02:33:58;;;;;;;8.43;2.58;;;;;;;;;;1082432;54;20488;-86
2021/08/22 02:35:00;;;;;;;4.53;2.08;;;;;;;;;;1082480;54;20369;-86
2021/08/22 02:36:02;;;;;;;4.80;2.90;;;;;;;;;;1082028;54;20357;-86
2021/08/22 02:37:04;;;;;;;6.53;2.17;;;;;;;;;;1082181;47;20375;-87
2021/08/22 02:38:05;;;;;;;11.00;3.22;;;;;;;;;;1081734;54;20404;-86
2021/08/22 02:39:07;;;;;;;7.38;2.55;;;;;;;;;;1082274;46;20391;-86
2021/08/22 02:40:09;;;;;;;5.35;2.20;;;;;;;;;;1082072;54;20369;-86
2021/08/22 02:41:11;;;;;;;6.22;2.25;;;;;;;;;;1082214;47;20408;-86
2021/08/22 02:42:15;;;;;;;6.85;2.75;;;;;;;;;;1081684;47;20389;-86
2021/08/22 02:43:17;;;;;;;7.15;2.55;;;;;;;;;;1081821;47;20377;-86
2021/08/22 02:44:19;;;;;;;6.88;2.53;;;;;;;;;;1082203;54;20445;-87
2021/08/22 02:45:21;;;;;;;4.15;2.17;;;;;;;;;;1082202;47;20404;-86
2021/08/22 02:46:26;;;;;;;6.07;2.40;;;;;;;;;;1082123;54;20436;-88
2021/08/22 02:47:28;;;;;;;7.85;3.15;;;;;;;;;;1081730;47;20369;-87
2021/08/22 02:48:30;;;;;;;6.25;3.42;;;;;;;;;;1081872;54;20396;-86
2021/08/22 02:49:31;;;;;;;11.20;3.45;;;;;;;;;;1082331;54;20492;-86
2021/08/22 02:50:33;;;;;;;5.25;3.20;;;;;;;;;;1081953;47;20416;-86
2021/08/22 02:51:35;;;;;;;7.90;2.72;;;;;;;;;;1082349;47;20380;-86
2021/08/22 02:52:37;;;;;;;7.07;2.85;;;;;;;;;;1081661;47;20401;-87
2021/08/22 02:53:40;;;;;;;6.15;3.38;;;;;;;;;;1082015;54;21340;-87
2021/08/22 02:54:41;;;;;;;5.53;3.45;;;;;;;;;;1082026;54;20576;-86
2021/08/22 02:55:43;;;;;;;6.18;3.15;;;;;;;;;;1082358;54;21043;-87
2021/08/22 02:56:45;;;;;;;5.80;3.47;;;;;;;;;;1081649;47;20366;-86
2021/08/22 02:57:47;;;;;;;3.85;3.45;;;;;;;;;;1081649;46;20377;-86
2021/08/22 02:58:49;;;;;;;6.53;3.83;;;;;;;;;;1082055;47;20432;-86
2021/08/22 02:59:51;;;;;;;10.07;4.47;;;;;;;;;;1082072;54;20419;-87
2021/08/22 03:00:52;;;;;;;5.22;3.95;;;;;;;;;;1081717;54;20922;-86
2021/08/22 03:01:54;;;;;;;9.27;4.90;;;;;;;;;;1081463;54;20396;-86
2021/08/22 03:02:57;;;;;;;6.97;4.82;;;;;;;;;;1082570;54;20492;-86
2021/08/22 03:04:00;;;;;;;8.55;4.40;;;;;;;;;;1081887;54;20427;-86
2021/08/22 03:05:02;;;;;;;9.82;4.80;;;;;;;;;;1081869;47;20927;-86
2021/08/22 03:06:04;;;;;;;8.45;4.88;;;;;;;;;;1082337;39;20836;-86
2021/08/22 03:07:06;;;;;;;10.60;4.75;;;;;;;;;;1081615;47;20349;-86
2021/08/22 03:08:07;;;;;;;8.05;5.15;;;;;;;;;;1081760;54;20361;-86
2021/08/22 03:09:10;;;;;;;8.93;5.28;;;;;;;;;;1082194;47;20468;-86
2021/08/22 03:10:13;;;;;;;7.83;5.53;;;;;;;;;;1082009;54;20418;-87
2021/08/22 03:11:18;;;;;;;7.15;5.30;;;;;;;;;;1081719;54;20400;-87
2021/08/22 03:12:21;;;;;;;11.05;6.38;;;;;;;;;;1081545;54;20432;-86
2021/08/22 03:13:23;;;;;;;10.68;6.38;;;;;;;;;;1082243;47;21205;-86
2021/08/22 03:14:25;;;;;;;12.45;6.40;;;;;;;;;;1081720;54;20381;-88
2021/08/22 03:15:27;;;;;;;12.13;6.93;;;;;;;;;;1081665;54;20388;-88
2021/08/22 03:16:29;;;;;;;8.77;6.53;;;;;;;;;;1082005;54;20361;-87
2021/08/22 03:17:31;;;;;;;10.63;7.32;;;;;;;;;;1081555;54;20478;-87
2021/08/22 03:18:33;;;;;;;13.32;7.28;;;;;;;;;;1081748;54;20477;-86
2021/08/22 03:19:36;;;;;;;14.23;9.27;;;;;;;;;;1082018;54;20422;-86
2021/08/22 03:20:38;;;;;;;17.98;10.65;;;;;;;;;;1081796;47;20394;-87
2021/08/22 03:21:45;;;;;;;13.15;9.05;;;;;;;;;;1081537;54;20396;-86
2021/08/22 03:22:47;;;;;;;17.00;9.90;;;;;;;;;;1081935;54;20415;-86
2021/08/22 03:23:49;;;;;;;19.40;12.57;;;;;;;;;;1081770;47;20994;-87
2021/08/22 03:24:51;;;;;;;16.35;11.48;;;;;;;;;;1081914;54;20408;-87
2021/08/22 03:25:54;;;;;;;18.85;12.77;;;;;;;;;;1082184;54;20384;-87
2021/08/22 03:26:55;;;;;;;25.67;16.85;;;;;;;;;;1081724;54;20405;-86
2021/08/22 03:27:57;;;;;;;30.30;19.00;;;;;;;;;;1081771;54;20488;-87
2021/08/22 03:28:59;;;;;;;33.05;21.05;;;;;;;;;;1081704;47;20415;-87
2021/08/22 03:30:01;;;;;;;29.17;19.75;;;;;;;;;;1082010;54;20972;-87
2021/08/22 03:31:03;;;;;;;30.05;20.73;;;;;;;;;;1081523;47;20358;-88
2021/08/22 03:32:05;;;;;;;31.80;20.37;;;;;;;;;;1081406;47;20456;-86
2021/08/22 03:33:07;;;;;;;32.97;21.35;;;;;;;;;;1081896;54;20356;-87
2021/08/22 03:34:09;;;;;;;29.23;21.00;;;;;;;;;;1081831;54;20436;-88
2021/08/22 03:35:11;;;;;;;36.55;22.88;;;;;;;;;;1081738;47;20358;-87
2021/08/22 03:36:12;;;;;;;38.05;23.15;;;;;;;;;;1081957;54;20361;-87
2021/08/22 03:37:14;;;;;;;35.55;22.88;;;;;;;;;;1081196;54;20386;-88
2021/08/22 03:38:16;;;;;;;36.95;25.27;;;;;;;;;;1081876;54;21256;-86
2021/08/22 03:39:18;;;;;;;42.55;28.27;;;;;;;;;;1081845;54;20369;-87
2021/08/22 03:40:21;;;;;;;42.28;26.60;;;;;;;;;;1081884;47;20465;-87
2021/08/22 03:41:23;;;;;;;41.33;27.52;;;;;;;;;;1081660;47;20361;-89
2021/08/22 03:42:24;;;;;;;49.78;29.15;;;;;;;;;;1081890;47;20393;-87
2021/08/22 03:43:27;;;;;;;49.60;28.58;;;;;;;;;;1082761;39;20788;-88
2021/08/22 03:44:29;;;;;;;50.20;30.65;;;;;;;;;;1082309;39;20893;-87
2021/08/22 03:45:31;;;;;;;51.40;30.13;;;;;;;;;;1081807;54;20353;-87
2021/08/22 03:46:34;;;;;;;54.47;30.83;;;;;;;;;;1081782;54;21225;-86
2021/08/22 03:47:35;;;;;;;50.40;30.50;;;;;;;;;;1081888;54;20372;-86
2021/08/22 03:48:37;;;;;;;49.65;30.20;;;;;;;;;;1082959;54;20389;-87
2021/08/22 03:49:39;;;;;;;53.25;32.28;;;;;;;;;;1082920;47;20468;-87
2021/08/22 03:50:41;;;;;;;56.28;33.40;;;;;;;;;;1083779;54;20941;-87
2021/08/22 03:51:42;;;;;;;53.08;33.38;;;;;;;;;;1082331;39;20603;-87
2021/08/22 03:52:48;;;;;;;54.03;32.60;;;;;;;;;;1081802;54;21037;-86
2021/08/22 03:53:50;;;;;;;60.90;33.90;;;;;;;;;;1081869;47;20385;-86
2021/08/22 03:54:58;;;;;;;56.25;33.85;;;;;;;;;;1081920;54;20469;-86
2021/08/22 03:56:00;;;;;;;57.85;33.85;;;;;;;;;;1081645;54;20917;-87
2021/08/22 03:57:02;;;;;;;52.42;34.13;;;;;;;;;;1081489;47;20365;-86
2021/08/22 03:58:04;;;;;;;53.28;33.33;;;;;;;;;;1081542;46;20449;-87
2021/08/22 03:59:09;;;;;;;56.90;33.88;;;;;;;;;;1082067;54;20435;-87
2021/08/22 04:00:11;;;;;;;51.47;32.97;;;;;;;;;;1081732;47;20381;-87
2021/08/22 04:01:13;;;;;;;56.88;33.47;;;;;;;;;;1082094;39;20786;-87
2021/08/22 04:02:17;;;;;;;53.10;34.05;;;;;;;;;;1082030;54;20381;-87
2021/08/22 04:03:19;;;;;;;55.25;34.08;;;;;;;;;;1081838;39;20759;-87
2021/08/22 04:04:21;;;;;;;57.15;35.60;;;;;;;;;;1081973;54;21020;-87
2021/08/22 04:05:22;;;;;;;55.07;34.47;;;;;;;;;;1081887;46;20997;-87
2021/08/22 04:06:25;;;;;;;55.72;35.83;;;;;;;;;;1081736;46;20407;-89
2021/08/22 04:07:28;;;;;;;62.38;37.58;;;;;;;;;;1081707;54;20464;-88
2021/08/22 04:08:31;;;;;;;60.40;36.10;;;;;;;;;;1081837;54;20369;-87
2021/08/22 04:09:33;;;;;;;63.47;36.97;;;;;;;;;;1082079;54;21350;-88
2021/08/22 04:10:36;;;;;;;56.42;34.65;;;;;;;;;;1082045;47;21083;-88
2021/08/22 04:11:37;;;;;;;62.72;37.78;;;;;;;;;;1083451;47;20429;-87
2021/08/22 04:12:39;;;;;;;59.83;37.25;;;;;;;;;;1083642;54;20644;-87
2021/08/22 04:13:41;;;;;;;59.42;36.90;;;;;;;;;;1083988;54;20473;-88
2021/08/22 04:14:43;;;;;;;60.38;37.90;;;;;;;;;;1083042;54;20378;-88
2021/08/22 04:15:45;;;;;;;55.95;35.90;;;;;;;;;;1082813;47;20369;-87
2021/08/22 04:16:48;;;;;;;54.13;36.15;;;;;;;;;;1083570;47;20362;-87
2021/08/22 04:17:52;;;;;;;60.15;36.30;;;;;;;;;;1085017;47;20385;-88
2021/08/22 04:18:53;;;;;;;59.25;37.72;;;;;;;;;;1085986;46;20393;-88
2021/08/22 04:19:55;;;;;;;56.23;35.77;;;;;;;;;;1085508;54;20385;-88
2021/08/22 04:20:59;;;;;;;51.78;34.95;;;;;;;;;;1084083;54;20357;-88
2021/08/22 04:22:01;;;;;;;53.72;34.60;;;;;;;;;;1083112;54;20931;-87
2021/08/22 04:23:03;;;;;;;47.58;33.33;;;;;;;;;;1083224;54;20374;-87
2021/08/22 04:24:04;;;;;;;46.60;32.33;;;;;;;;;;1084255;47;20373;-87
2021/08/22 04:25:08;;;;;;;45.70;30.83;;;;;;;;;;1086381;47;20396;-88
2021/08/22 04:26:10;;;;;;;41.67;28.00;;;;;;;;;;1086754;54;20350;-88
2021/08/22 04:27:13;;;;;;;34.92;27.83;;;;;;;;;;1086917;47;20421;-89
2021/08/22 04:28:14;;;;;;;37.28;27.13;;;;;;;;;;1087039;47;20393;-88
2021/08/22 04:29:16;;;;;;;28.38;23.42;;;;;;;;;;1087452;47;20421;-89
2021/08/22 04:30:18;;;;;;;29.02;23.27;;;;;;;;;;1087254;47;20376;-87
2021/08/22 04:31:20;;;;;;;27.15;22.45;;;;;;;;;;1086585;47;20410;-89
2021/08/22 04:32:22;;;;;;;25.63;22.87;;;;;;;;;;1086285;46;20390;-87
2021/08/22 04:33:24;;;;;;;27.80;23.27;;;;;;;;;;1085974;47;20381;-88
2021/08/22 04:34:25;;;;;;;29.30;22.50;;;;;;;;;;1083329;51;20373;-88
2021/08/22 04:35:29;;;;;;;29.65;21.55;;;;;;;;;;1083015;47;20372;-88
2021/08/22 04:36:31;;;;;;;25.65;21.67;;;;;;;;;;1082499;54;20404;-87
2021/08/22 04:37:32;;;;;;;28.13;22.35;;;;;;;;;;1082185;54;20400;-87
2021/08/22 04:38:35;;;;;;;25.45;21.08;;;;;;;;;;1082916;47;20401;-87
2021/08/22 04:39:37;;;;;;;26.83;22.23;;;;;;;;;;1082671;47;20404;-86
2021/08/22 04:40:39;;;;;;;27.10;22.33;;;;;;;;;;1082142;54;20369;-87
2021/08/22 04:41:45;;;;;;;28.98;23.52;;;;;;;;;;1082646;46;20389;-87
2021/08/22 04:42:47;;;;;;;28.10;23.27;;;;;;;;;;1082207;47;20894;-88
2021/08/22 04:43:52;;;;;;;27.10;21.52;;;;;;;;;;1082726;54;20465;-88
2021/08/22 04:44:53;;;;;;;26.42;21.02;;;;;;;;;;1082311;53;20392;-88
2021/08/22 04:45:55;;;;;;;30.23;22.40;;;;;;;;;;1082631;47;20425;-88
2021/08/22 04:46:57;;;;;;;27.10;21.65;;;;;;;;;;1082414;47;20408;-87
2021/08/22 04:47:59;;;;;;;27.42;21.27;;;;;;;;;;1082234;54;20468;-88
2021/08/22 04:49:02;;;;;;;28.60;23.27;;;;;;;;;;1082407;47;20374;-87
2021/08/22 04:50:05;;;;;;;29.83;22.85;;;;;;;;;;1082843;54;20377;-88
2021/08/22 04:51:07;;;;;;;30.83;22.90;;;;;;;;;;1082505;54;20372;-88
2021/08/22 04:52:09;;;;;;;25.95;21.38;;;;;;;;;;1082456;47;20380;-87
2021/08/22 04:53:12;;;;;;;28.02;22.17;;;;;;;;;;1082902;54;20486;-86
2021/08/22 04:54:14;;;;;;;29.77;23.38;;;;;;;;;;1084629;54;20385;-88
2021/08/22 04:55:16;;;;;;;26.55;22.25;;;;;;;;;;1086332;54;20400;-88
2021/08/22 04:56:17;;;;;;;36.70;23.58;;;;;;;;;;1086552;47;20381;-89
2021/08/22 04:57:21;;;;;;;31.13;23.88;;;;;;;;;;1086901;54;20388;-88
2021/08/22 04:58:22;;;;;;;31.90;22.52;;;;;;;;;;1086460;54;20433;-89
2021/08/22 04:59:24;;;;;;;27.67;22.95;;;;;;;;;;1086828;47;20379;-89
2021/08/22 05:00:26;;;;;;;26.92;23.02;;;;;;;;;;1086558;47;20341;-90
2021/08/22 05:01:28;;;;;;;30.35;22.85;;;;;;;;;;1087417;54;20362;-89
2021/08/22 05:02:30;;;;;;;31.80;24.00;;;;;;;;;;1087747;54;20369;-88
2021/08/22 05:03:33;;;;;;;26.38;22.55;;;;;;;;;;1087698;54;20393;-88
2021/08/22 05:04:35;;;;;;;35.47;24.35;;;;;;;;;;1087206;54;20397;-87
2021/08/22 05:05:37;;;;;;;29.30;23.73;;;;;;;;;;1087002;46;20392;-87
2021/08/22 05:06:39;;;;;;;28.83;23.58;;;;;;;;;;1086724;54;20378;-86
2021/08/22 05:07:41;;;;;;;27.20;23.17;;;;;;;;;;1085227;54;20445;-87
2021/08/22 05:08:42;;;;;;;30.67;24.73;;;;;;;;;;1083764;39;20745;-86
2021/08/22 05:09:44;;;;;;;27.15;24.00;;;;;;;;;;1083181;47;20890;-87
2021/08/22 05:10:48;;;;;;;33.30;24.17;;;;;;;;;;1082704;46;20373;-87
2021/08/22 05:11:50;;;;;;;33.35;24.60;;;;;;;;;;1082202;47;20472;-87
2021/08/22 05:12:52;;;;;;;33.47;24.88;;;;;;;;;;1082492;39;20770;-87
2021/08/22 05:13:54;;;;;;;28.73;23.90;;;;;;;;;;1082567;54;20357;-88
2021/08/22 05:14:56;;;;;;;31.83;24.55;;;;;;;;;;1083213;47;20512;-87
2021/08/22 05:15:58;;;;;;;38.50;25.10;;;;;;;;;;1082116;54;20392;-87
2021/08/22 05:17:02;;;;;;;29.92;24.75;;;;;;;;;;1081711;54;20373;-87
2021/08/22 05:18:04;;;;;;;32.22;25.23;;;;;;;;;;1081863;54;20374;-87
2021/08/22 05:19:06;;;;;;;29.50;24.50;;;;;;;;;;1081957;54;20377;-88
2021/08/22 05:20:08;;;;;;;29.60;24.88;;;;;;;;;;1081768;47;20349;-87
2021/08/22 05:21:10;;;;;;;30.73;25.13;;;;;;;;;;1081838;54;20369;-88
2021/08/22 05:22:12;;;;;;;33.83;24.98;;;;;;;;;;1081679;54;20917;-87
2021/08/22 05:23:15;;;;;;;32.60;25.05;;;;;;;;;;1082655;31;22753;-87
2021/08/22 05:24:17;;;;;;;30.70;24.50;;;;;;;;;;1082157;54;20500;-87
2021/08/22 05:25:19;;;;;;;29.17;24.63;;;;;;;;;;1081979;54;20374;-88
2021/08/22 05:26:21;;;;;;;32.47;24.10;;;;;;;;;;1081668;54;20392;-88
2021/08/22 05:27:24;;;;;;;32.83;25.73;;;;;;;;;;1081349;47;20369;-88
2021/08/22 05:28:26;;;;;;;29.08;25.27;;;;;;;;;;1082780;39;20733;-89
2021/08/22 05:29:28;;;;;;;34.15;25.63;;;;;;;;;;1082431;47;20377;-89
2021/08/22 05:30:30;;;;;;;32.90;25.45;;;;;;;;;;1081732;54;20369;-89
2021/08/22 05:31:31;;;;;;;33.20;25.33;;;;;;;;;;1081725;54;20381;-89
2021/08/22 05:32:34;;;;;;;28.80;24.33;;;;;;;;;;1081679;47;20378;-87
2021/08/22 05:33:35;;;;;;;31.20;24.45;;;;;;;;;;1081813;54;20377;-88
2021/08/22 05:34:37;;;;;;;28.35;24.75;;;;;;;;;;1082630;54;20401;-87
2021/08/22 05:35:39;;;;;;;33.17;24.48;;;;;;;;;;1081927;54;20365;-88
2021/08/22 05:36:47;;;;;;;32.28;24.60;;;;;;;;;;1081896;47;20441;-88
2021/08/22 05:37:49;;;;;;;28.05;23.85;;;;;;;;;;1081387;54;20475;-88
2021/08/22 05:38:52;;;;;;;28.02;23.00;;;;;;;;;;1081763;54;20385;-87
2021/08/22 05:39:54;;;;;;;27.73;23.38;;;;;;;;;;1081228;47;20369;-88
2021/08/22 05:40:56;;;;;;;31.65;24.08;;;;;;;;;;1081647;47;20972;-88
2021/08/22 05:41:59;;;;;;;28.45;23.67;;;;;;;;;;1081891;54;20353;-88
2021/08/22 05:43:01;;;;;;;31.08;24.05;;;;;;;;;;1081460;54;20472;-87
2021/08/22 05:44:06;;;;;;;31.38;23.10;;;;;;;;;;1081481;47;20358;-87
2021/08/22 05:45:08;;;;;;;28.65;22.58;;;;;;;;;;1082569;54;20380;-87
2021/08/22 05:46:10;;;;;;;29.08;22.67;;;;;;;;;;1081523;47;20472;-87
2021/08/22 05:47:19;;;;;;;27.57;21.47;;;;;;;;;;1081983;47;20401;-87
2021/08/22 05:48:22;;;;;;;25.80;20.63;;;;;;;;;;1081263;47;20917;-87
2021/08/22 05:49:24;;;;;;;23.95;19.98;;;;;;;;;;1082179;47;20387;-87
2021/08/22 05:50:26;;;;;;;24.95;20.40;;;;;;;;;;1081847;54;20407;-88
2021/08/22 05:51:28;;;;;;;22.45;19.65;;;;;;;;;;1082143;54;20458;-89
2021/08/22 05:52:36;;;;;;;25.30;20.30;;;;;;;;;;1082714;54;20416;-89
2021/08/22 05:53:41;;;;;;;25.25;18.60;;;;;;;;;;1081635;47;20369;-87
2021/08/22 05:54:43;;;;;;;26.20;19.40;;;;;;;;;;1081873;47;20412;-87
2021/08/22 05:55:44;;;;;;;27.90;20.13;;;;;;;;;;1082152;54;20357;-87
2021/08/22 05:56:46;;;;;;;24.38;19.00;;;;;;;;;;1082261;47;20448;-87
2021/08/22 05:57:48;;;;;;;23.02;17.27;;;;;;;;;;1082660;39;20660;-87
2021/08/22 05:58:50;;;;;;;26.27;18.30;;;;;;;;;;1081973;54;20469;-88
2021/08/22 05:59:51;;;;;;;27.73;18.55;;;;;;;;;;1082485;47;20381;-88
2021/08/22 06:00:53;;;;;;;25.10;18.25;;;;;;;;;;1081875;54;20366;-87
2021/08/22 06:01:55;;;;;;;24.83;18.60;;;;;;;;;;1082093;47;20976;-87
2021/08/22 06:02:58;;;;;;;24.00;18.13;;;;;;;;;;1081997;47;20451;-89
2021/08/22 06:04:01;;;;;;;25.07;17.90;;;;;;;;;;1082561;39;20806;-88
2021/08/22 06:05:06;;;;;;;23.58;17.42;;;;;;;;;;1081967;54;20909;-87
2021/08/22 06:06:09;;;;;;;21.73;17.48;;;;;;;;;;1082240;47;20952;-87
2021/08/22 06:07:18;;;;;;;21.77;16.60;;;;;;;;;;1082175;54;20373;-87
2021/08/22 06:08:21;;;;;;;22.48;17.33;;;;;;;;;;1082386;47;21044;-87
2021/08/22 06:09:23;;;;;;;24.23;17.60;;;;;;;;;;1081508;47;20381;-88
2021/08/22 06:10:25;;;;;;;23.05;17.17;;;;;;;;;;1082044;54;20389;-88
2021/08/22 06:11:27;;;;;;;22.25;16.65;;;;;;;;;;1081981;54;20404;-89
2021/08/22 06:12:32;;;;;;;27.80;17.80;;;;;;;;;;1081763;47;20365;-87
2021/08/22 06:13:40;;;;;;;20.65;17.27;;;;;;;;;;1082015;39;20854;-88